createdAt,value
2022-10-22T00:00:37.248Z,100.00
2022-10-22T00:03:04.131Z,100.00
2022-10-22T00:05:30.655Z,100.00
2022-10-22T00:08:00.679Z,100.00
2022-10-22T00:10:27.291Z,100.00
2022-10-22T00:12:53.840Z,100.00
2022-10-22T00:15:20.386Z,100.00
2022-10-22T00:17:51.609Z,100.00
2022-10-22T00:20:18.183Z,100.00
2022-10-22T00:22:44.718Z,100.00
2022-10-22T00:25:11.409Z,100.00
2022-10-22T00:27:38.450Z,100.00
2022-10-22T00:30:05.791Z,100.00
2022-10-22T00:32:34.247Z,100.00
2022-10-22T00:35:01.032Z,100.00
2022-10-22T00:37:27.589Z,100.00
2022-10-22T00:40:00.718Z,100.00
2022-10-22T00:42:31.756Z,100.00
2022-10-22T00:45:22.940Z,100.00
2022-10-22T00:48:11.715Z,100.00
2022-10-22T00:50:43.731Z,100.00
2022-10-22T00:53:16.956Z,100.00
2022-10-22T00:55:48.506Z,100.00
2022-10-22T00:58:15.622Z,100.00
2022-10-22T01:09:16.015Z,100.00
2022-10-22T01:12:02.794Z,100.00
2022-10-22T01:14:40.875Z,100.00
2022-10-22T01:17:15.574Z,100.00
2022-10-22T01:20:03.124Z,100.00
2022-10-22T01:22:40.605Z,100.00
2022-10-22T01:25:18.045Z,100.00
2022-10-22T01:27:47.751Z,100.00
2022-10-22T01:30:15.921Z,100.00
2022-10-22T01:32:52.303Z,100.00
2022-10-22T01:35:24.489Z,100.00
2022-10-22T01:37:56.099Z,100.00
2022-10-22T01:40:23.851Z,100.00
2022-10-22T01:43:02.743Z,100.00
2022-10-22T01:45:33.604Z,100.00
2022-10-22T01:48:19.518Z,100.00
2022-10-22T01:50:46.032Z,100.00
2022-10-22T01:53:46.634Z,100.00
2022-10-22T01:56:37.863Z,100.00
2022-10-22T01:59:56.882Z,100.00
2022-10-22T02:02:43.514Z,100.00
2022-10-22T02:05:18.427Z,100.00
2022-10-22T02:08:08.882Z,100.00
2022-10-22T02:10:41.126Z,100.00
2022-10-22T02:13:12.385Z,100.00
2022-10-22T02:15:44.526Z,100.00
2022-10-22T02:18:11.952Z,100.00
2022-10-22T02:20:41.681Z,100.00
2022-10-22T02:23:09.961Z,100.00
2022-10-22T02:25:40.474Z,100.00
2022-10-22T02:28:17.355Z,100.00
2022-10-22T02:30:49.033Z,100.00
2022-10-22T02:33:21.950Z,100.00
2022-10-22T02:35:49.854Z,100.00
2022-10-22T02:38:18.858Z,100.00
2022-10-22T02:40:47.338Z,100.00
2022-10-22T02:43:14.168Z,100.00
2022-10-22T02:45:40.667Z,100.00
2022-10-22T02:48:07.536Z,100.00
2022-10-22T02:50:34.114Z,100.00
2022-10-22T02:53:00.629Z,100.00
2022-10-22T02:55:35.757Z,100.00
2022-10-22T02:58:02.302Z,100.00
2022-10-22T03:00:28.936Z,100.00
2022-10-22T03:02:55.641Z,100.00
2022-10-22T03:05:22.119Z,100.00
2022-10-22T03:07:50.707Z,100.00
2022-10-22T03:10:17.486Z,100.00
2022-10-22T03:12:44.238Z,100.00
2022-10-22T03:15:10.905Z,100.00
2022-10-22T03:17:39.438Z,100.00
2022-10-22T03:20:08.454Z,100.00
2022-10-22T03:22:39.355Z,100.00
2022-10-22T03:25:10.658Z,100.00
2022-10-22T03:27:40.443Z,100.00
2022-10-22T03:30:08.271Z,100.00
2022-10-22T03:32:34.910Z,100.00
2022-10-22T03:35:01.434Z,100.00
2022-10-22T03:37:28.193Z,100.00
2022-10-22T03:39:55.524Z,100.00
2022-10-22T03:42:22.674Z,100.00
2022-10-22T03:44:49.334Z,100.00
2022-10-22T03:47:17.609Z,100.00
2022-10-22T03:49:46.041Z,100.00
2022-10-22T03:52:14.487Z,100.00
2022-10-22T03:54:42.573Z,100.00
2022-10-22T03:57:10.189Z,100.00
2022-10-22T03:59:41.960Z,100.00
2022-10-22T04:02:08.891Z,100.00
2022-10-22T04:04:36.132Z,100.00
2022-10-22T04:07:03.209Z,100.00
2022-10-22T04:09:35.411Z,100.00
2022-10-22T04:12:02.298Z,100.00
2022-10-22T04:14:28.783Z,100.00
2022-10-22T04:16:57.355Z,100.00
2022-10-22T04:19:23.879Z,100.00
2022-10-22T04:21:50.691Z,100.00
2022-10-22T04:24:17.324Z,100.00
2022-10-22T04:26:43.843Z,100.00
2022-10-22T04:29:13.592Z,100.00
2022-10-22T04:31:42.828Z,100.00
2022-10-22T04:34:11.314Z,100.00
2022-10-22T04:36:37.806Z,100.00
2022-10-22T04:39:05.492Z,100.00
2022-10-22T04:41:34.422Z,100.00
2022-10-22T04:44:01.314Z,100.00
2022-10-22T04:46:30.721Z,100.00
2022-10-22T04:48:57.919Z,100.00
2022-10-22T04:51:26.900Z,100.00
2022-10-22T04:53:55.538Z,100.00
2022-10-22T04:56:25.138Z,100.00
2022-10-22T04:59:03.970Z,100.00
2022-10-22T05:01:39.976Z,100.00
2022-10-22T05:04:14.441Z,100.00
2022-10-22T05:06:42.945Z,100.00
2022-10-22T05:09:15.880Z,100.00
2022-10-22T05:11:46.410Z,100.00
2022-10-22T05:14:13.337Z,100.00
2022-10-22T05:16:40.383Z,100.00
2022-10-22T05:19:07.945Z,100.00
2022-10-22T05:21:34.942Z,100.00
2022-10-22T05:24:09.284Z,100.00
2022-10-22T05:26:35.796Z,100.00
2022-10-22T05:29:02.310Z,100.00
2022-10-22T05:31:29.181Z,100.00
2022-10-22T05:34:00.190Z,100.00
2022-10-22T05:36:26.705Z,100.00
2022-10-22T05:38:55.344Z,100.00
2022-10-22T05:41:24.478Z,100.00
2022-10-22T05:43:51.568Z,100.00
2022-10-22T05:46:23.007Z,100.00
2022-10-22T05:48:56.067Z,100.00
2022-10-22T05:51:23.126Z,100.00
2022-10-22T05:53:55.033Z,100.00
2022-10-22T05:56:22.715Z,100.00
2022-10-22T05:58:49.536Z,100.00
2022-10-22T06:01:19.616Z,100.00
2022-10-22T06:03:47.214Z,100.00
2022-10-22T06:06:47.777Z,100.00
2022-10-22T06:09:30.853Z,100.00
2022-10-22T06:11:58.165Z,100.00
2022-10-22T06:14:25.201Z,100.00
2022-10-22T06:16:52.117Z,100.00
2022-10-22T06:19:21.053Z,100.00
2022-10-22T06:21:48.436Z,100.00
2022-10-22T06:24:17.388Z,100.00
2022-10-22T06:26:44.299Z,100.00
2022-10-22T06:29:11.335Z,100.00
2022-10-22T06:31:37.862Z,100.00
2022-10-22T06:34:20.214Z,100.00
2022-10-22T06:36:47.417Z,100.00
2022-10-22T06:39:17.047Z,100.00
2022-10-22T06:41:43.777Z,100.00
2022-10-22T06:44:19.596Z,100.00
2022-10-22T06:46:46.134Z,100.00
2022-10-22T06:49:14.690Z,100.00
2022-10-22T06:51:41.405Z,100.00
2022-10-22T06:54:10.587Z,100.00
2022-10-22T06:56:37.098Z,100.00
2022-10-22T06:59:04.209Z,100.00
2022-10-22T07:01:34.582Z,100.00
2022-10-22T07:04:01.538Z,100.00
2022-10-22T07:06:29.242Z,100.00
2022-10-22T07:09:02.013Z,100.00
2022-10-22T07:11:31.017Z,100.00
2022-10-22T07:13:59.087Z,100.00
2022-10-22T07:16:32.147Z,100.00
2022-10-22T07:18:59.727Z,100.00
2022-10-22T07:21:26.231Z,100.00
2022-10-22T07:23:57.437Z,100.00
2022-10-22T07:26:28.540Z,100.00
2022-10-22T07:28:57.168Z,100.00
2022-10-22T07:31:29.293Z,100.00
2022-10-22T07:33:56.135Z,100.00
2022-10-22T07:36:24.877Z,100.00
2022-10-22T07:38:58.156Z,100.00
2022-10-22T07:41:25.647Z,100.00
2022-10-22T07:43:52.275Z,100.00
2022-10-22T07:46:19.931Z,100.00
2022-10-22T07:48:48.729Z,100.00
2022-10-22T07:51:15.876Z,100.00
2022-10-22T07:53:42.725Z,100.00
2022-10-22T07:56:09.426Z,100.00
2022-10-22T07:58:36.530Z,100.00
2022-10-22T08:01:08.429Z,100.00
2022-10-22T08:03:35.538Z,98.87
2022-10-22T08:06:02.700Z,100.00
2022-10-22T08:08:42.080Z,100.00
2022-10-22T08:11:10.102Z,100.00
2022-10-22T08:13:37.492Z,100.00
2022-10-22T08:16:06.114Z,98.14
2022-10-22T08:18:32.622Z,94.21
2022-10-22T08:20:59.221Z,94.62
2022-10-22T08:23:28.692Z,100.00
2022-10-22T08:25:56.685Z,100.00
2022-10-22T08:28:23.138Z,100.00
2022-10-22T08:30:51.586Z,100.00
2022-10-22T08:33:18.213Z,100.00
2022-10-22T08:35:49.721Z,100.00
2022-10-22T08:38:16.687Z,100.00
2022-10-22T08:40:50.148Z,100.00
2022-10-22T08:43:37.022Z,100.00
2022-10-22T08:46:16.481Z,100.00
2022-10-22T08:48:47.543Z,100.00
2022-10-22T08:51:21.382Z,100.00
2022-10-22T08:54:05.347Z,94.34
2022-10-22T08:56:34.994Z,92.57
2022-10-22T08:59:11.378Z,84.24
2022-10-22T09:01:46.143Z,85.32
2022-10-22T09:04:36.508Z,78.59
2022-10-22T09:07:04.979Z,88.55
2022-10-22T09:09:47.019Z,83.27
2022-10-22T09:12:20.215Z,81.92
2022-10-22T09:14:49.435Z,76.45
2022-10-22T09:17:29.564Z,76.54
2022-10-22T09:20:26.357Z,74.96
2022-10-22T09:23:16.835Z,78.01
2022-10-22T09:25:47.152Z,79.03
2022-10-22T09:28:15.984Z,79.82
2022-10-22T09:30:43.439Z,79.03
2022-10-22T09:33:10.054Z,76.19
2022-10-22T09:35:50.908Z,72.88
2022-10-22T09:38:23.445Z,72.86
2022-10-22T09:40:53.130Z,73.16
2022-10-22T09:43:20.176Z,73.21
2022-10-22T09:45:49.739Z,71.52
2022-10-22T09:48:30.574Z,66.95
2022-10-22T09:51:41.648Z,60.66
2022-10-22T09:54:23.593Z,65.21
2022-10-22T09:57:05.640Z,63.92
2022-10-22T09:59:39.531Z,67.42
2022-10-22T10:02:43.724Z,59.51
2022-10-22T10:05:20.028Z,69.12
2022-10-22T10:07:50.331Z,68.95
2022-10-22T10:10:37.113Z,63.83
2022-10-22T10:13:19.647Z,59.69
2022-10-22T10:16:20.961Z,56.22
2022-10-22T10:19:13.565Z,58.21
2022-10-22T10:22:00.020Z,58.43
2022-10-22T10:24:34.389Z,65.95
2022-10-22T10:27:20.215Z,55.42
2022-10-22T10:29:55.990Z,62.96
2022-10-22T10:32:46.386Z,57.61
2022-10-22T10:35:25.695Z,60.49
2022-10-22T10:38:03.975Z,54.83
2022-10-22T10:40:39.832Z,55.38
2022-10-22T10:43:29.599Z,52.61
2022-10-22T10:46:21.208Z,49.54
2022-10-22T10:48:56.599Z,55.43
2022-10-22T10:51:39.345Z,51.06
2022-10-22T10:54:16.729Z,54.94
2022-10-22T10:56:58.695Z,53.76
2022-10-22T10:59:44.112Z,57.16
2022-10-22T11:02:29.465Z,52.28
2022-10-22T11:05:23.328Z,53.30
2022-10-22T11:07:59.700Z,51.80
2022-10-22T11:10:36.549Z,51.08
2022-10-22T11:13:31.045Z,53.45
2022-10-22T11:16:06.976Z,51.71
2022-10-22T11:18:48.213Z,51.20
2022-10-22T11:21:22.797Z,53.98
2022-10-22T11:24:49.212Z,48.27
2022-10-22T11:27:22.716Z,55.95
2022-10-22T11:29:59.412Z,58.35
2022-10-22T11:32:28.005Z,56.50
2022-10-22T11:35:03.206Z,55.67
2022-10-22T11:37:34.941Z,55.57
2022-10-22T11:40:11.022Z,53.96
2022-10-22T11:42:43.306Z,56.04
2022-10-22T11:45:15.564Z,53.18
2022-10-22T11:47:53.101Z,48.86
2022-10-22T11:50:45.465Z,52.22
2022-10-22T11:53:14.713Z,56.10
2022-10-22T11:55:50.884Z,57.55
2022-10-22T11:58:42.235Z,53.57
2022-10-22T12:01:13.299Z,56.51
2022-10-22T12:04:04.074Z,60.91
2022-10-22T12:06:56.523Z,53.43
2022-10-22T12:09:26.687Z,55.73
2022-10-22T12:12:03.453Z,56.20
2022-10-22T12:14:40.773Z,58.02
2022-10-22T12:17:15.654Z,55.36
2022-10-22T12:19:48.961Z,56.37
2022-10-22T12:22:21.045Z,58.10
2022-10-22T12:24:51.760Z,59.16
2022-10-22T12:27:30.143Z,53.58
2022-10-22T12:29:59.128Z,56.92
2022-10-22T12:32:40.510Z,51.66
2022-10-22T12:35:17.672Z,56.91
2022-10-22T12:37:50.760Z,56.69
2022-10-22T12:40:20.334Z,56.79
2022-10-22T12:42:58.746Z,57.03
2022-10-22T12:45:34.317Z,59.34
2022-10-22T12:48:07.342Z,51.55
2022-10-22T12:50:38.345Z,56.87
2022-10-22T12:53:07.103Z,58.02
2022-10-22T12:55:34.533Z,57.83
2022-10-22T12:58:07.373Z,55.50
2022-10-22T13:00:35.471Z,58.39
2022-10-22T13:03:06.541Z,58.48
2022-10-22T13:05:43.299Z,57.64
2022-10-22T13:08:12.564Z,59.11
2022-10-22T13:10:41.508Z,58.58
2022-10-22T13:13:42.766Z,56.90
2022-10-22T13:16:25.785Z,55.05
2022-10-22T13:18:53.133Z,59.83
2022-10-22T13:21:29.676Z,58.92
2022-10-22T13:24:03.436Z,58.59
2022-10-22T13:26:34.010Z,59.34
2022-10-22T13:29:01.453Z,60.52
2022-10-22T13:31:33.631Z,60.41
2022-10-22T13:34:09.784Z,60.27
2022-10-22T13:36:38.642Z,59.95
2022-10-22T13:39:08.028Z,61.86
2022-10-22T13:44:12.828Z,61.06
2022-10-22T13:46:42.913Z,62.67
2022-10-22T13:49:23.610Z,58.85
2022-10-22T13:51:51.356Z,62.61
2022-10-22T13:54:23.822Z,60.89
2022-10-22T13:56:50.548Z,63.69
2022-10-22T13:59:19.767Z,64.10
2022-10-22T14:01:49.400Z,63.14
2022-10-22T14:04:17.645Z,64.09
2022-10-22T14:06:44.428Z,62.34
2022-10-22T14:09:15.152Z,64.12
2022-10-22T14:11:42.097Z,64.81
2022-10-22T14:14:09.236Z,63.95
2022-10-22T14:16:37.652Z,65.22
2022-10-22T14:19:07.346Z,64.79
2022-10-22T14:21:37.768Z,64.68
2022-10-22T14:24:07.073Z,64.82
2022-10-22T14:26:42.572Z,65.79
2022-10-22T14:29:10.342Z,66.10
2022-10-22T14:34:12.481Z,66.70
2022-10-22T14:36:39.086Z,67.22
2022-10-22T14:39:07.871Z,66.78
2022-10-22T14:41:36.493Z,68.04
2022-10-22T14:44:03.158Z,67.84
2022-10-22T14:46:29.643Z,68.64
2022-10-22T14:49:07.573Z,67.76
2022-10-22T14:51:36.792Z,68.74
2022-10-22T14:54:06.780Z,67.77
2022-10-22T14:56:33.309Z,68.73
2022-10-22T14:58:59.853Z,69.20
2022-10-22T15:01:26.361Z,69.48
2022-10-22T15:03:52.879Z,69.84
2022-10-22T15:06:23.865Z,69.46
2022-10-22T15:08:50.874Z,70.17
2022-10-22T15:11:19.637Z,70.06
2022-10-22T15:13:46.136Z,70.26
2022-10-22T15:16:15.522Z,71.00
2022-10-22T15:18:44.728Z,71.79
2022-10-22T15:21:20.506Z,71.85
2022-10-22T15:23:47.358Z,72.52
2022-10-22T15:26:14.692Z,72.34
2022-10-22T15:28:41.714Z,72.90
2022-10-22T15:31:08.508Z,73.29
2022-10-22T15:33:34.990Z,73.33
2022-10-22T15:36:11.928Z,73.36
2022-10-22T15:38:38.571Z,73.67
2022-10-22T15:41:08.672Z,73.92
2022-10-22T15:43:35.351Z,74.54
2022-10-22T15:46:14.881Z,74.77
2022-10-22T15:48:42.171Z,75.83
2022-10-22T15:51:14.678Z,76.34
2022-10-22T15:53:41.603Z,76.86
2022-10-22T15:56:09.045Z,77.35
2022-10-22T15:58:37.814Z,77.73
2022-10-22T16:01:15.379Z,78.15
2022-10-22T16:03:42.216Z,78.76
2022-10-22T16:06:09.538Z,79.27
2022-10-22T16:08:37.232Z,79.86
2022-10-22T16:11:03.987Z,80.68
2022-10-22T16:13:31.078Z,81.27
2022-10-22T16:16:02.007Z,82.18
2022-10-22T16:18:28.574Z,83.35
2022-10-22T16:20:55.021Z,84.66
2022-10-22T16:23:21.652Z,86.53
2022-10-22T16:25:48.204Z,88.81
2022-10-22T16:28:14.858Z,90.40
2022-10-22T16:30:43.505Z,90.61
2022-10-22T16:33:11.649Z,90.38
2022-10-22T16:35:42.093Z,91.33
2022-10-22T16:38:10.935Z,91.52
2022-10-22T16:40:39.788Z,92.21
2022-10-22T16:43:06.335Z,92.78
2022-10-22T16:45:34.632Z,94.02
2022-10-22T16:50:54.853Z,97.17
2022-10-22T16:53:24.885Z,97.13
2022-10-22T16:55:51.389Z,98.58
2022-10-22T16:58:18.077Z,98.78
2022-10-22T17:00:44.629Z,99.13
2022-10-22T17:03:12.160Z,99.93
2022-10-22T17:05:43.338Z,100.00
2022-10-22T17:08:09.804Z,100.00
2022-10-22T17:10:37.419Z,100.00
2022-10-22T17:13:07.411Z,100.00
2022-10-22T17:15:33.943Z,100.00
2022-10-22T17:18:00.843Z,100.00
2022-10-22T17:20:35.086Z,100.00
2022-10-22T17:23:01.564Z,100.00
2022-10-22T17:26:02.862Z,100.00
2022-10-22T17:28:29.768Z,100.00
2022-10-22T17:31:14.794Z,100.00
2022-10-22T17:33:41.294Z,100.00
2022-10-22T17:36:10.873Z,100.00
2022-10-22T17:38:40.586Z,100.00
2022-10-22T17:41:10.408Z,100.00
2022-10-22T17:43:40.693Z,100.00
2022-10-22T17:46:12.520Z,100.00
2022-10-22T17:48:39.013Z,100.00
2022-10-22T17:51:10.335Z,100.00
2022-10-22T17:53:40.856Z,100.00
2022-10-22T17:56:10.147Z,100.00
2022-10-22T17:58:37.359Z,100.00
2022-10-22T18:01:04.656Z,100.00
2022-10-22T18:03:32.297Z,100.00
2022-10-22T18:06:07.492Z,100.00
2022-10-22T18:08:34.125Z,100.00
2022-10-22T18:11:01.197Z,100.00
2022-10-22T18:16:19.562Z,100.00
2022-10-22T18:18:50.663Z,100.00
2022-10-22T18:21:17.820Z,100.00
2022-10-22T18:23:45.067Z,100.00
2022-10-22T18:26:12.010Z,100.00
2022-10-22T18:28:38.531Z,100.00
2022-10-22T18:31:09.359Z,100.00
2022-10-22T18:33:36.938Z,100.00
2022-10-22T18:36:11.628Z,100.00
2022-10-22T18:38:38.610Z,100.00
2022-10-22T18:41:09.885Z,100.00
2022-10-22T18:43:38.551Z,100.00
2022-10-22T18:46:10.604Z,100.00
2022-10-22T18:48:37.145Z,100.00
2022-10-22T18:51:10.114Z,100.00
2022-10-22T18:53:37.632Z,100.00
2022-10-22T18:56:09.303Z,100.00
2022-10-22T18:58:42.706Z,100.00
2022-10-22T19:01:13.507Z,100.00
2022-10-22T19:03:40.392Z,100.00
2022-10-22T19:06:09.456Z,100.00
2022-10-22T19:08:37.036Z,100.00
2022-10-22T19:11:15.485Z,100.00
2022-10-22T19:13:42.840Z,100.00
2022-10-22T19:16:15.571Z,100.00
2022-10-22T19:18:44.088Z,100.00
2022-10-22T19:21:11.509Z,100.00
2022-10-22T19:23:38.004Z,100.00
2022-10-22T19:26:12.386Z,100.00
2022-10-22T19:28:39.982Z,100.00
2022-10-22T19:31:18.999Z,100.00
2022-10-22T19:33:47.991Z,100.00
2022-10-22T19:36:16.840Z,100.00
2022-10-22T19:41:21.261Z,100.00
2022-10-22T19:43:50.296Z,100.00
2022-10-22T19:46:18.220Z,100.00
2022-10-22T19:51:21.571Z,100.00
2022-10-22T19:53:49.177Z,100.00
2022-10-22T19:56:21.119Z,100.00
2022-10-22T19:58:47.954Z,100.00
2022-10-22T20:01:25.672Z,100.00
2022-10-22T20:03:54.558Z,100.00
2022-10-22T20:06:21.953Z,100.00
2022-10-22T20:08:51.120Z,100.00
2022-10-22T20:11:25.863Z,100.00
2022-10-22T20:13:54.171Z,100.00
2022-10-22T20:16:24.345Z,100.00
2022-10-22T20:18:53.665Z,100.00
2022-10-22T20:21:23.474Z,100.00
2022-10-22T20:23:54.591Z,100.00
2022-10-22T20:26:23.386Z,100.00
2022-10-22T20:28:56.505Z,100.00
2022-10-22T20:31:27.140Z,100.00
2022-10-22T20:33:56.896Z,100.00
2022-10-22T20:36:26.585Z,100.00
2022-10-22T20:38:53.294Z,100.00
2022-10-22T20:41:22.494Z,100.00
2022-10-22T20:43:51.632Z,100.00
2022-10-22T20:46:25.512Z,100.00
2022-10-22T20:48:58.265Z,100.00
2022-10-22T20:51:24.845Z,100.00
2022-10-22T20:53:51.342Z,100.00
2022-10-22T20:56:18.653Z,100.00
2022-10-22T20:58:49.084Z,100.00
2022-10-22T21:01:29.814Z,100.00
2022-10-22T21:03:56.888Z,100.00
2022-10-22T21:06:25.688Z,100.00
2022-10-22T21:08:54.261Z,100.00
2022-10-22T21:11:22.758Z,100.00
2022-10-22T21:13:50.341Z,100.00
2022-10-22T21:16:20.523Z,100.00
2022-10-22T21:18:49.659Z,100.00
2022-10-22T21:21:19.999Z,100.00
2022-10-22T21:23:48.816Z,100.00
2022-10-22T21:26:15.328Z,100.00
2022-10-22T21:28:41.861Z,100.00
2022-10-22T21:31:10.520Z,100.00
2022-10-22T21:33:39.195Z,100.00
2022-10-22T21:36:06.948Z,100.00
2022-10-22T21:38:41.650Z,100.00
2022-10-22T21:41:10.664Z,100.00
2022-10-22T21:43:40.250Z,100.00
2022-10-22T21:46:15.126Z,100.00
2022-10-22T21:48:44.246Z,100.00
2022-10-22T21:51:13.571Z,100.00
2022-10-22T21:53:41.332Z,100.00
2022-10-22T21:56:12.811Z,100.00
2022-10-22T21:58:39.323Z,100.00
2022-10-22T22:01:10.502Z,100.00
2022-10-22T22:03:37.218Z,100.00
2022-10-22T22:06:06.266Z,100.00
2022-10-22T22:08:34.399Z,100.00
2022-10-22T22:11:06.740Z,100.00
2022-10-22T22:13:34.226Z,100.00
2022-10-22T22:16:05.728Z,100.00
2022-10-22T22:18:32.659Z,100.00
2022-10-22T22:20:59.993Z,100.00
2022-10-22T22:23:35.184Z,100.00
2022-10-22T22:26:02.292Z,100.00
2022-10-22T22:28:30.440Z,100.00
2022-10-22T22:30:57.569Z,100.00
2022-10-22T22:33:24.557Z,100.00
2022-10-22T22:35:51.488Z,100.00
2022-10-22T22:38:20.321Z,100.00
2022-10-22T22:40:47.078Z,100.00
2022-10-22T22:43:13.606Z,100.00
2022-10-22T22:45:42.589Z,100.00
2022-10-22T22:48:09.085Z,100.00
2022-10-22T22:50:36.689Z,100.00
2022-10-22T22:53:05.415Z,100.00
2022-10-22T22:55:32.099Z,100.00
2022-10-22T22:57:58.962Z,100.00
2022-10-22T23:00:27.246Z,100.00
2022-10-22T23:02:55.553Z,100.00
2022-10-22T23:05:22.121Z,100.00
2022-10-22T23:07:50.882Z,100.00
2022-10-22T23:10:17.413Z,100.00
2022-10-22T23:12:44.165Z,100.00
2022-10-22T23:15:13.457Z,100.00
2022-10-22T23:17:39.975Z,100.00
2022-10-22T23:20:11.931Z,100.00
2022-10-22T23:22:40.443Z,100.00
2022-10-22T23:25:07.522Z,100.00
2022-10-22T23:27:34.005Z,100.00
2022-10-22T23:30:02.254Z,100.00
2022-10-22T23:32:31.206Z,100.00
2022-10-22T23:34:57.831Z,100.00
2022-10-22T23:37:24.510Z,100.00
2022-10-22T23:39:50.974Z,100.00
2022-10-22T23:42:17.442Z,100.00
2022-10-22T23:44:49.089Z,100.00
2022-10-22T23:47:15.581Z,100.00
2022-10-22T23:49:42.410Z,100.00
2022-10-22T23:52:11.358Z,100.00
2022-10-22T23:54:37.843Z,100.00
2022-10-22T23:57:04.378Z,100.00
2022-10-22T23:59:32.614Z,100.00
